Terminal Aerodrome Forecast
Issued by NWS

Home | Current Version | Previous Version | Text Only | Print | Product List | Glossary On
Versions: 1 2 3 4 5 6 7 8 9 10 11 12 13 14 15 16 17 18 19 20 21 22 23 24 25 26 27 28 29
000
FTUS43 KDTX 280500
TAFYIP
TAF
KYIP 280521Z 2806/2906 04002KT P6SM SCT050
     FM281000 02004KT P6SM BKN050
     FM281600 36006KT P6SM SCT050
     FM290000 VRB04KT P6SM SCT250=

USA.gov is the U.S. government's official web portal to all federal, state and local government web resources and services.